sensor_id;sensor_type;location;lat;lon;timestamp;P1;durP1;ratioP1;P2;durP2;ratioP2
62535;SDS011;63050;47.514;18.920;2023-10-08T00:02:40;6.60;;;3.30;;
62535;SDS011;63050;47.514;18.920;2023-10-08T00:07:42;4.50;;;3.10;;
62535;SDS011;63050;47.514;18.920;2023-10-08T00:12:44;4.60;;;3.00;;
62535;SDS011;63050;47.514;18.920;2023-10-08T00:17:48;5.20;;;3.30;;
62535;SDS011;63050;47.514;18.920;2023-10-08T00:22:49;13.70;;;4.90;;
62535;SDS011;63050;47.514;18.920;2023-10-08T00:27:51;4.80;;;3.40;;
62535;SDS011;63050;47.514;18.920;2023-10-08T00:32:52;5.10;;;3.30;;
62535;SDS011;63050;47.514;18.920;2023-10-08T00:37:53;4.30;;;2.80;;
62535;SDS011;63050;47.514;18.920;2023-10-08T00:42:54;4.00;;;2.90;;
62535;SDS011;63050;47.514;18.920;2023-10-08T00:47:57;7.10;;;3.00;;
62535;SDS011;63050;47.514;18.920;2023-10-08T00:52:59;7.70;;;3.20;;
62535;SDS011;63050;47.514;18.920;2023-10-08T00:58:01;4.60;;;2.90;;
62535;SDS011;63050;47.514;18.920;2023-10-08T01:03:10;4.60;;;2.90;;
62535;SDS011;63050;47.514;18.920;2023-10-08T01:13:23;4.90;;;2.80;;
62535;SDS011;63050;47.514;18.920;2023-10-08T01:18:27;7.60;;;3.60;;
62535;SDS011;63050;47.514;18.920;2023-10-08T01:23:33;4.00;;;2.80;;
62535;SDS011;63050;47.514;18.920;2023-10-08T01:28:34;5.50;;;3.00;;
62535;SDS011;63050;47.514;18.920;2023-10-08T01:33:35;6.90;;;3.10;;
62535;SDS011;63050;47.514;18.920;2023-10-08T01:38:40;5.90;;;2.90;;
62535;SDS011;63050;47.514;18.920;2023-10-08T01:43:42;7.00;;;2.80;;
62535;SDS011;63050;47.514;18.920;2023-10-08T01:48:45;4.70;;;3.10;;
62535;SDS011;63050;47.514;18.920;2023-10-08T01:53:46;4.80;;;2.90;;
62535;SDS011;63050;47.514;18.920;2023-10-08T01:58:48;6.00;;;2.90;;
62535;SDS011;63050;47.514;18.920;2023-10-08T02:03:49;6.30;;;3.10;;
62535;SDS011;63050;47.514;18.920;2023-10-08T02:08:51;4.70;;;2.90;;
62535;SDS011;63050;47.514;18.920;2023-10-08T02:13:52;4.60;;;2.70;;
62535;SDS011;63050;47.514;18.920;2023-10-08T02:18:53;5.00;;;3.10;;
62535;SDS011;63050;47.514;18.920;2023-10-08T02:23:54;6.00;;;3.00;;
62535;SDS011;63050;47.514;18.920;2023-10-08T02:28:55;4.40;;;3.00;;
62535;SDS011;63050;47.514;18.920;2023-10-08T02:33:59;6.10;;;3.20;;
62535;SDS011;63050;47.514;18.920;2023-10-08T02:39:01;5.70;;;3.60;;
62535;SDS011;63050;47.514;18.920;2023-10-08T02:49:11;5.10;;;3.40;;
62535;SDS011;63050;47.514;18.920;2023-10-08T02:54:12;5.90;;;3.20;;
62535;SDS011;63050;47.514;18.920;2023-10-08T02:59:19;5.50;;;3.00;;
62535;SDS011;63050;47.514;18.920;2023-10-08T03:04:23;6.30;;;3.40;;
62535;SDS011;63050;47.514;18.920;2023-10-08T03:09:25;6.70;;;3.20;;
62535;SDS011;63050;47.514;18.920;2023-10-08T03:14:33;6.10;;;3.20;;
62535;SDS011;63050;47.514;18.920;2023-10-08T03:19:43;6.70;;;3.50;;
62535;SDS011;63050;47.514;18.920;2023-10-08T03:24:45;7.80;;;3.40;;
62535;SDS011;63050;47.514;18.920;2023-10-08T03:29:49;6.00;;;3.40;;
62535;SDS011;63050;47.514;18.920;2023-10-08T03:34:55;8.80;;;3.70;;
62535;SDS011;63050;47.514;18.920;2023-10-08T03:39:57;8.70;;;3.70;;
62535;SDS011;63050;47.514;18.920;2023-10-08T03:45:02;6.20;;;3.00;;
62535;SDS011;63050;47.514;18.920;2023-10-08T03:50:11;7.40;;;3.10;;
62535;SDS011;63050;47.514;18.920;2023-10-08T03:55:12;5.00;;;3.00;;
62535;SDS011;63050;47.514;18.920;2023-10-08T04:00:19;5.70;;;3.50;;
62535;SDS011;63050;47.514;18.920;2023-10-08T04:05:29;7.60;;;2.70;;
62535;SDS011;63050;47.514;18.920;2023-10-08T04:10:42;6.20;;;3.20;;
62535;SDS011;63050;47.514;18.920;2023-10-08T04:15:43;7.30;;;3.20;;
62535;SDS011;63050;47.514;18.920;2023-10-08T04:20:44;6.70;;;2.90;;
62535;SDS011;63050;47.514;18.920;2023-10-08T04:26:04;9.00;;;3.10;;
62535;SDS011;63050;47.514;18.920;2023-10-08T04:31:07;11.30;;;2.80;;
62535;SDS011;63050;47.514;18.920;2023-10-08T04:36:17;8.90;;;3.20;;
62535;SDS011;63050;47.514;18.920;2023-10-08T04:41:21;8.70;;;3.00;;
62535;SDS011;63050;47.514;18.920;2023-10-08T04:46:28;7.90;;;3.70;;
62535;SDS011;63050;47.514;18.920;2023-10-08T04:51:47;6.90;;;3.00;;
62535;SDS011;63050;47.514;18.920;2023-10-08T04:56:49;6.50;;;2.70;;
62535;SDS011;63050;47.514;18.920;2023-10-08T05:01:51;6.30;;;2.60;;
62535;SDS011;63050;47.514;18.920;2023-10-08T05:07:10;8.90;;;3.40;;
62535;SDS011;63050;47.514;18.920;2023-10-08T05:12:18;8.20;;;3.30;;
62535;SDS011;63050;47.514;18.920;2023-10-08T05:17:29;8.00;;;3.40;;
62535;SDS011;63050;47.514;18.920;2023-10-08T05:22:46;8.00;;;3.20;;
62535;SDS011;63050;47.514;18.920;2023-10-08T05:27:56;8.90;;;2.90;;
62535;SDS011;63050;47.514;18.920;2023-10-08T05:32:57;6.40;;;2.70;;
62535;SDS011;63050;47.514;18.920;2023-10-08T05:38:18;5.30;;;2.80;;
62535;SDS011;63050;47.514;18.920;2023-10-08T05:43:27;5.90;;;2.90;;
62535;SDS011;63050;47.514;18.920;2023-10-08T05:48:41;7.80;;;3.00;;
62535;SDS011;63050;47.514;18.920;2023-10-08T05:53:47;7.50;;;3.30;;
62535;SDS011;63050;47.514;18.920;2023-10-08T05:58:50;7.80;;;3.10;;
62535;SDS011;63050;47.514;18.920;2023-10-08T06:04:11;6.00;;;3.10;;
62535;SDS011;63050;47.514;18.920;2023-10-08T06:09:32;8.50;;;3.10;;
62535;SDS011;63050;47.514;18.920;2023-10-08T06:14:38;7.00;;;2.70;;
62535;SDS011;63050;47.514;18.920;2023-10-08T06:19:58;6.10;;;3.30;;
62535;SDS011;63050;47.514;18.920;2023-10-08T06:24:59;4.90;;;2.50;;
62535;SDS011;63050;47.514;18.920;2023-10-08T06:30:17;6.90;;;2.70;;
62535;SDS011;63050;47.514;18.920;2023-10-08T06:35:18;7.00;;;2.90;;
62535;SDS011;63050;47.514;18.920;2023-10-08T06:40:21;6.00;;;3.20;;
62535;SDS011;63050;47.514;18.920;2023-10-08T06:45:52;5.70;;;2.80;;
62535;SDS011;63050;47.514;18.920;2023-10-08T06:50:53;6.60;;;3.50;;
62535;SDS011;63050;47.514;18.920;2023-10-08T06:55:57;5.30;;;3.00;;
62535;SDS011;63050;47.514;18.920;2023-10-08T07:01:01;6.70;;;3.00;;
62535;SDS011;63050;47.514;18.920;2023-10-08T07:06:06;9.50;;;3.10;;
62535;SDS011;63050;47.514;18.920;2023-10-08T07:11:26;6.60;;;3.00;;
62535;SDS011;63050;47.514;18.920;2023-10-08T07:16:28;6.40;;;3.20;;
62535;SDS011;63050;47.514;18.920;2023-10-08T07:21:29;6.20;;;2.90;;
62535;SDS011;63050;47.514;18.920;2023-10-08T07:26:38;7.20;;;3.00;;
62535;SDS011;63050;47.514;18.920;2023-10-08T07:31:41;8.20;;;2.60;;
62535;SDS011;63050;47.514;18.920;2023-10-08T07:36:43;8.80;;;3.50;;
62535;SDS011;63050;47.514;18.920;2023-10-08T07:41:45;9.50;;;3.20;;
62535;SDS011;63050;47.514;18.920;2023-10-08T07:46:50;9.80;;;3.20;;
62535;SDS011;63050;47.514;18.920;2023-10-08T07:51:52;6.20;;;2.60;;
62535;SDS011;63050;47.514;18.920;2023-10-08T07:56:53;11.10;;;3.20;;
62535;SDS011;63050;47.514;18.920;2023-10-08T08:02:09;7.20;;;3.00;;
62535;SDS011;63050;47.514;18.920;2023-10-08T08:07:13;5.90;;;3.10;;
62535;SDS011;63050;47.514;18.920;2023-10-08T08:12:17;8.00;;;2.60;;
62535;SDS011;63050;47.514;18.920;2023-10-08T08:17:21;6.40;;;3.10;;
62535;SDS011;63050;47.514;18.920;2023-10-08T08:22:23;6.80;;;3.10;;
62535;SDS011;63050;47.514;18.920;2023-10-08T08:27:31;7.30;;;3.00;;
62535;SDS011;63050;47.514;18.920;2023-10-08T08:32:32;9.00;;;3.10;;
62535;SDS011;63050;47.514;18.920;2023-10-08T08:37:34;7.20;;;2.70;;
62535;SDS011;63050;47.514;18.920;2023-10-08T08:42:36;7.50;;;3.30;;
62535;SDS011;63050;47.514;18.920;2023-10-08T08:47:38;7.30;;;2.70;;
62535;SDS011;63050;47.514;18.920;2023-10-08T08:52:43;8.00;;;2.90;;
62535;SDS011;63050;47.514;18.920;2023-10-08T08:57:47;7.50;;;2.40;;
62535;SDS011;63050;47.514;18.920;2023-10-08T09:02:50;12.60;;;3.90;;
62535;SDS011;63050;47.514;18.920;2023-10-08T09:08:04;5.40;;;2.80;;
62535;SDS011;63050;47.514;18.920;2023-10-08T09:13:07;11.10;;;2.80;;
62535;SDS011;63050;47.514;18.920;2023-10-08T09:18:10;8.10;;;2.80;;
62535;SDS011;63050;47.514;18.920;2023-10-08T09:23:12;7.80;;;3.10;;
62535;SDS011;63050;47.514;18.920;2023-10-08T09:28:14;7.60;;;3.00;;
62535;SDS011;63050;47.514;18.920;2023-10-08T09:33:15;4.70;;;2.40;;
62535;SDS011;63050;47.514;18.920;2023-10-08T09:38:18;7.40;;;2.80;;
62535;SDS011;63050;47.514;18.920;2023-10-08T09:43:24;7.00;;;2.50;;
62535;SDS011;63050;47.514;18.920;2023-10-08T09:48:27;7.60;;;2.90;;
62535;SDS011;63050;47.514;18.920;2023-10-08T09:53:34;7.50;;;2.80;;
62535;SDS011;63050;47.514;18.920;2023-10-08T09:58:41;9.50;;;3.20;;
62535;SDS011;63050;47.514;18.920;2023-10-08T10:03:44;6.60;;;2.70;;
62535;SDS011;63050;47.514;18.920;2023-10-08T10:08:47;9.60;;;2.40;;
62535;SDS011;63050;47.514;18.920;2023-10-08T10:13:50;6.90;;;2.40;;
62535;SDS011;63050;47.514;18.920;2023-10-08T10:18:55;6.80;;;2.20;;
62535;SDS011;63050;47.514;18.920;2023-10-08T10:34:08;4.20;;;1.80;;
62535;SDS011;63050;47.514;18.920;2023-10-08T10:39:10;3.10;;;1.10;;
62535;SDS011;63050;47.514;18.920;2023-10-08T10:44:17;2.90;;;1.20;;
62535;SDS011;63050;47.514;18.920;2023-10-08T10:49:18;2.00;;;1.10;;
62535;SDS011;63050;47.514;18.920;2023-10-08T10:54:31;3.70;;;0.80;;
62535;SDS011;63050;47.514;18.920;2023-10-08T10:59:37;2.40;;;0.70;;
62535;SDS011;63050;47.514;18.920;2023-10-08T11:04:38;1.10;;;0.60;;
62535;SDS011;63050;47.514;18.920;2023-10-08T11:09:48;1.30;;;0.50;;
62535;SDS011;63050;47.514;18.920;2023-10-08T11:14:49;0.60;;;0.40;;
62535;SDS011;63050;47.514;18.920;2023-10-08T11:19:53;0.40;;;0.20;;
62535;SDS011;63050;47.514;18.920;2023-10-08T11:24:54;1.20;;;0.20;;
62535;SDS011;63050;47.514;18.920;2023-10-08T11:29:57;0.40;;;0.20;;
62535;SDS011;63050;47.514;18.920;2023-10-08T11:35:00;2.20;;;0.30;;
62535;SDS011;63050;47.514;18.920;2023-10-08T11:40:26;0.90;;;0.30;;
62535;SDS011;63050;47.514;18.920;2023-10-08T11:45:30;1.00;;;0.20;;
62535;SDS011;63050;47.514;18.920;2023-10-08T11:50:39;1.10;;;0.20;;
62535;SDS011;63050;47.514;18.920;2023-10-08T11:55:41;0.20;;;0.20;;
62535;SDS011;63050;47.514;18.920;2023-10-08T12:00:43;0.10;;;0.10;;
62535;SDS011;63050;47.514;18.920;2023-10-08T12:05:45;1.90;;;0.20;;
62535;SDS011;63050;47.514;18.920;2023-10-08T12:10:49;0.70;;;0.30;;
62535;SDS011;63050;47.514;18.920;2023-10-08T12:15:54;1.40;;;0.20;;
62535;SDS011;63050;47.514;18.920;2023-10-08T12:21:14;0.60;;;0.40;;
62535;SDS011;63050;47.514;18.920;2023-10-08T12:26:17;1.00;;;0.30;;
62535;SDS011;63050;47.514;18.920;2023-10-08T12:31:20;1.10;;;0.40;;
62535;SDS011;63050;47.514;18.920;2023-10-08T12:41:27;0.30;;;0.20;;
62535;SDS011;63050;47.514;18.920;2023-10-08T12:46:28;0.30;;;0.30;;
62535;SDS011;63050;47.514;18.920;2023-10-08T12:51:32;1.10;;;0.30;;
62535;SDS011;63050;47.514;18.920;2023-10-08T12:56:34;1.10;;;0.60;;
62535;SDS011;63050;47.514;18.920;2023-10-08T13:01:55;2.60;;;0.30;;
62535;SDS011;63050;47.514;18.920;2023-10-08T13:06:58;1.20;;;0.60;;
62535;SDS011;63050;47.514;18.920;2023-10-08T13:12:04;2.80;;;1.10;;
62535;SDS011;63050;47.514;18.920;2023-10-08T13:17:06;0.80;;;0.40;;
62535;SDS011;63050;47.514;18.920;2023-10-08T13:22:12;1.50;;;0.40;;
62535;SDS011;63050;47.514;18.920;2023-10-08T13:27:21;0.90;;;0.30;;
62535;SDS011;63050;47.514;18.920;2023-10-08T13:32:25;0.80;;;0.30;;
62535;SDS011;63050;47.514;18.920;2023-10-08T13:37:28;0.50;;;0.30;;
62535;SDS011;63050;47.514;18.920;2023-10-08T13:42:30;1.40;;;0.30;;
62535;SDS011;63050;47.514;18.920;2023-10-08T13:47:33;2.20;;;0.40;;
62535;SDS011;63050;47.514;18.920;2023-10-08T13:52:37;1.60;;;0.50;;
62535;SDS011;63050;47.514;18.920;2023-10-08T13:57:41;2.60;;;1.30;;
62535;SDS011;63050;47.514;18.920;2023-10-08T14:02:45;1.50;;;0.50;;
62535;SDS011;63050;47.514;18.920;2023-10-08T14:07:52;0.80;;;0.30;;
62535;SDS011;63050;47.514;18.920;2023-10-08T14:12:56;2.50;;;0.80;;
62535;SDS011;63050;47.514;18.920;2023-10-08T14:18:03;1.30;;;0.70;;
62535;SDS011;63050;47.514;18.920;2023-10-08T14:23:15;2.00;;;0.80;;
62535;SDS011;63050;47.514;18.920;2023-10-08T14:28:18;1.10;;;0.50;;
62535;SDS011;63050;47.514;18.920;2023-10-08T14:33:25;1.60;;;0.70;;
62535;SDS011;63050;47.514;18.920;2023-10-08T14:38:29;1.60;;;0.80;;
62535;SDS011;63050;47.514;18.920;2023-10-08T14:43:50;1.80;;;0.80;;
62535;SDS011;63050;47.514;18.920;2023-10-08T14:48:53;3.40;;;0.90;;
62535;SDS011;63050;47.514;18.920;2023-10-08T14:54:00;2.50;;;0.90;;
62535;SDS011;63050;47.514;18.920;2023-10-08T14:59:03;2.30;;;1.00;;
62535;SDS011;63050;47.514;18.920;2023-10-08T15:04:06;1.90;;;0.70;;
62535;SDS011;63050;47.514;18.920;2023-10-08T15:09:14;2.60;;;1.40;;
62535;SDS011;63050;47.514;18.920;2023-10-08T15:14:22;1.70;;;0.90;;
62535;SDS011;63050;47.514;18.920;2023-10-08T15:19:25;1.50;;;0.90;;
62535;SDS011;63050;47.514;18.920;2023-10-08T15:24:28;2.50;;;1.00;;
62535;SDS011;63050;47.514;18.920;2023-10-08T15:29:30;2.20;;;1.10;;
62535;SDS011;63050;47.514;18.920;2023-10-08T15:34:34;3.30;;;1.00;;
62535;SDS011;63050;47.514;18.920;2023-10-08T15:39:37;2.00;;;1.20;;
62535;SDS011;63050;47.514;18.920;2023-10-08T15:44:41;2.30;;;1.20;;
62535;SDS011;63050;47.514;18.920;2023-10-08T15:49:43;2.90;;;1.20;;
62535;SDS011;63050;47.514;18.920;2023-10-08T15:54:47;3.30;;;1.40;;
62535;SDS011;63050;47.514;18.920;2023-10-08T15:59:48;2.70;;;1.30;;
62535;SDS011;63050;47.514;18.920;2023-10-08T16:04:55;3.60;;;1.60;;
62535;SDS011;63050;47.514;18.920;2023-10-08T16:09:57;3.70;;;1.80;;
62535;SDS011;63050;47.514;18.920;2023-10-08T16:15:00;4.20;;;1.50;;
62535;SDS011;63050;47.514;18.920;2023-10-08T16:20:05;3.70;;;1.90;;
62535;SDS011;63050;47.514;18.920;2023-10-08T16:25:15;3.90;;;1.50;;
62535;SDS011;63050;47.514;18.920;2023-10-08T16:30:20;4.10;;;1.80;;
62535;SDS011;63050;47.514;18.920;2023-10-08T16:35:24;3.50;;;1.90;;
62535;SDS011;63050;47.514;18.920;2023-10-08T16:40:26;3.60;;;1.70;;
62535;SDS011;63050;47.514;18.920;2023-10-08T16:45:28;2.80;;;1.60;;
62535;SDS011;63050;47.514;18.920;2023-10-08T16:50:30;3.40;;;1.80;;
62535;SDS011;63050;47.514;18.920;2023-10-08T16:55:33;3.50;;;1.30;;
62535;SDS011;63050;47.514;18.920;2023-10-08T17:00:35;3.90;;;1.80;;
62535;SDS011;63050;47.514;18.920;2023-10-08T17:05:39;3.70;;;1.80;;
62535;SDS011;63050;47.514;18.920;2023-10-08T17:11:06;2.70;;;1.80;;
62535;SDS011;63050;47.514;18.920;2023-10-08T17:16:14;3.90;;;2.00;;
62535;SDS011;63050;47.514;18.920;2023-10-08T17:21:18;3.60;;;1.70;;
62535;SDS011;63050;47.514;18.920;2023-10-08T17:26:24;2.70;;;1.80;;
62535;SDS011;63050;47.514;18.920;2023-10-08T17:31:28;2.90;;;1.50;;
62535;SDS011;63050;47.514;18.920;2023-10-08T17:36:35;4.10;;;1.90;;
62535;SDS011;63050;47.514;18.920;2023-10-08T17:41:40;4.20;;;2.10;;
62535;SDS011;63050;47.514;18.920;2023-10-08T17:46:42;4.50;;;1.70;;
62535;SDS011;63050;47.514;18.920;2023-10-08T17:51:45;3.20;;;1.90;;
62535;SDS011;63050;47.514;18.920;2023-10-08T17:56:48;5.20;;;1.90;;
62535;SDS011;63050;47.514;18.920;2023-10-08T18:01:52;4.40;;;2.40;;
62535;SDS011;63050;47.514;18.920;2023-10-08T18:06:55;2.70;;;1.70;;
62535;SDS011;63050;47.514;18.920;2023-10-08T18:11:58;3.70;;;1.90;;
62535;SDS011;63050;47.514;18.920;2023-10-08T18:17:03;3.50;;;1.50;;
62535;SDS011;63050;47.514;18.920;2023-10-08T18:22:06;3.30;;;1.80;;
62535;SDS011;63050;47.514;18.920;2023-10-08T18:27:11;4.70;;;2.00;;
62535;SDS011;63050;47.514;18.920;2023-10-08T18:32:15;5.00;;;2.10;;
62535;SDS011;63050;47.514;18.920;2023-10-08T18:37:17;4.20;;;1.90;;
62535;SDS011;63050;47.514;18.920;2023-10-08T18:42:20;3.80;;;1.90;;
62535;SDS011;63050;47.514;18.920;2023-10-08T18:47:24;5.10;;;2.10;;
62535;SDS011;63050;47.514;18.920;2023-10-08T18:52:30;3.60;;;1.90;;
62535;SDS011;63050;47.514;18.920;2023-10-08T18:57:34;4.00;;;1.80;;
62535;SDS011;63050;47.514;18.920;2023-10-08T19:02:41;3.20;;;1.60;;
62535;SDS011;63050;47.514;18.920;2023-10-08T19:07:43;2.70;;;1.70;;
62535;SDS011;63050;47.514;18.920;2023-10-08T19:12:46;2.80;;;1.60;;
62535;SDS011;63050;47.514;18.920;2023-10-08T19:17:48;2.50;;;1.70;;
62535;SDS011;63050;47.514;18.920;2023-10-08T19:22:51;3.30;;;1.70;;
62535;SDS011;63050;47.514;18.920;2023-10-08T19:27:55;4.80;;;1.80;;
62535;SDS011;63050;47.514;18.920;2023-10-08T19:32:59;4.30;;;2.50;;
62535;SDS011;63050;47.514;18.920;2023-10-08T19:38:03;3.90;;;1.50;;
62535;SDS011;63050;47.514;18.920;2023-10-08T19:43:05;3.60;;;1.40;;
62535;SDS011;63050;47.514;18.920;2023-10-08T19:48:11;6.80;;;1.80;;
62535;SDS011;63050;47.514;18.920;2023-10-08T19:53:13;2.70;;;1.40;;
62535;SDS011;63050;47.514;18.920;2023-10-08T19:58:18;5.20;;;1.50;;
62535;SDS011;63050;47.514;18.920;2023-10-08T20:03:23;4.50;;;1.40;;
62535;SDS011;63050;47.514;18.920;2023-10-08T20:08:25;3.80;;;1.60;;
62535;SDS011;63050;47.514;18.920;2023-10-08T20:13:28;3.60;;;1.30;;
62535;SDS011;63050;47.514;18.920;2023-10-08T20:18:31;4.30;;;1.50;;
62535;SDS011;63050;47.514;18.920;2023-10-08T20:23:33;2.50;;;1.40;;
62535;SDS011;63050;47.514;18.920;2023-10-08T20:28:40;2.70;;;1.50;;
62535;SDS011;63050;47.514;18.920;2023-10-08T20:33:43;3.40;;;1.60;;
62535;SDS011;63050;47.514;18.920;2023-10-08T20:38:45;2.00;;;1.30;;
62535;SDS011;63050;47.514;18.920;2023-10-08T20:43:48;2.20;;;1.20;;
62535;SDS011;63050;47.514;18.920;2023-10-08T20:48:49;4.40;;;1.60;;
62535;SDS011;63050;47.514;18.920;2023-10-08T20:53:51;2.40;;;1.30;;
62535;SDS011;63050;47.514;18.920;2023-10-08T20:58:57;3.50;;;1.70;;
62535;SDS011;63050;47.514;18.920;2023-10-08T21:03:59;2.60;;;1.60;;
62535;SDS011;63050;47.514;18.920;2023-10-08T21:09:01;3.20;;;1.40;;
62535;SDS011;63050;47.514;18.920;2023-10-08T21:14:02;3.10;;;1.50;;
62535;SDS011;63050;47.514;18.920;2023-10-08T21:19:03;3.30;;;1.50;;
62535;SDS011;63050;47.514;18.920;2023-10-08T21:24:09;4.20;;;1.60;;
62535;SDS011;63050;47.514;18.920;2023-10-08T21:29:10;4.20;;;1.60;;
62535;SDS011;63050;47.514;18.920;2023-10-08T21:34:11;3.00;;;1.50;;
62535;SDS011;63050;47.514;18.920;2023-10-08T21:39:13;2.20;;;1.20;;
62535;SDS011;63050;47.514;18.920;2023-10-08T21:44:16;2.90;;;1.50;;
62535;SDS011;63050;47.514;18.920;2023-10-08T21:49:19;2.60;;;1.40;;
62535;SDS011;63050;47.514;18.920;2023-10-08T21:54:20;3.80;;;1.30;;
62535;SDS011;63050;47.514;18.920;2023-10-08T21:59:22;2.90;;;1.40;;
62535;SDS011;63050;47.514;18.920;2023-10-08T22:04:23;3.10;;;1.50;;
62535;SDS011;63050;47.514;18.920;2023-10-08T22:09:26;3.00;;;1.50;;
62535;SDS011;63050;47.514;18.920;2023-10-08T22:14:29;3.40;;;1.10;;
62535;SDS011;63050;47.514;18.920;2023-10-08T22:19:33;2.60;;;1.40;;
62535;SDS011;63050;47.514;18.920;2023-10-08T22:24:43;2.80;;;1.30;;
62535;SDS011;63050;47.514;18.920;2023-10-08T22:29:46;3.20;;;1.20;;
62535;SDS011;63050;47.514;18.920;2023-10-08T22:34:48;2.20;;;1.30;;
62535;SDS011;63050;47.514;18.920;2023-10-08T22:39:56;3.40;;;1.40;;
62535;SDS011;63050;47.514;18.920;2023-10-08T22:44:57;1.80;;;1.20;;
62535;SDS011;63050;47.514;18.920;2023-10-08T22:50:04;3.30;;;1.40;;
62535;SDS011;63050;47.514;18.920;2023-10-08T22:55:18;3.40;;;1.70;;
62535;SDS011;63050;47.514;18.920;2023-10-08T23:00:20;1.80;;;1.10;;
62535;SDS011;63050;47.514;18.920;2023-10-08T23:05:27;2.00;;;1.20;;
62535;SDS011;63050;47.514;18.920;2023-10-08T23:10:28;1.90;;;1.10;;
62535;SDS011;63050;47.514;18.920;2023-10-08T23:15:31;2.20;;;1.40;;
62535;SDS011;63050;47.514;18.920;2023-10-08T23:20:37;3.40;;;2.30;;
62535;SDS011;63050;47.514;18.920;2023-10-08T23:25:38;3.20;;;1.80;;
62535;SDS011;63050;47.514;18.920;2023-10-08T23:30:40;2.40;;;1.30;;
62535;SDS011;63050;47.514;18.920;2023-10-08T23:35:42;3.20;;;1.70;;
62535;SDS011;63050;47.514;18.920;2023-10-08T23:40:48;3.10;;;1.80;;
62535;SDS011;63050;47.514;18.920;2023-10-08T23:46:23;3.10;;;1.60;;
62535;SDS011;63050;47.514;18.920;2023-10-08T23:51:32;3.10;;;1.50;;
62535;SDS011;63050;47.514;18.920;2023-10-08T23:56:38;2.70;;;1.20;;
